sensor_id;sensor_type;location;lat;lon;timestamp;pressure;altitude;pressure_sealevel;temperature;humidity
22862;BME280;11598;50.652;6.172;2022-11-06T00:08:39;96496.19;;;4.88;100.00
22862;BME280;11598;50.652;6.172;2022-11-06T00:18:42;96493.91;;;4.82;100.00
22862;BME280;11598;50.652;6.172;2022-11-06T00:28:42;96489.75;;;4.79;100.00
22862;BME280;11598;50.652;6.172;2022-11-06T00:38:43;96490.66;;;4.78;100.00
22862;BME280;11598;50.652;6.172;2022-11-06T00:48:44;96464.88;;;4.96;100.00
22862;BME280;11598;50.652;6.172;2022-11-06T00:58:46;96467.56;;;5.10;100.00
22862;BME280;11598;50.652;6.172;2022-11-06T01:08:47;96465.38;;;5.20;100.00
22862;BME280;11598;50.652;6.172;2022-11-06T01:18:48;96446.66;;;5.16;100.00
22862;BME280;11598;50.652;6.172;2022-11-06T01:28:49;96421.22;;;5.10;100.00
22862;BME280;11598;50.652;6.172;2022-11-06T01:38:52;96416.53;;;5.01;100.00
22862;BME280;11598;50.652;6.172;2022-11-06T01:48:57;96415.97;;;4.96;100.00
22862;BME280;11598;50.652;6.172;2022-11-06T01:58:58;96412.38;;;4.98;100.00
22862;BME280;11598;50.652;6.172;2022-11-06T02:08:59;96405.19;;;5.05;100.00
22862;BME280;11598;50.652;6.172;2022-11-06T02:19:27;96398.88;;;5.11;100.00
22862;BME280;11598;50.652;6.172;2022-11-06T02:29:37;96380.50;;;5.17;100.00
22862;BME280;11598;50.652;6.172;2022-11-06T02:39:40;96379.50;;;5.19;100.00
22862;BME280;11598;50.652;6.172;2022-11-06T02:59:51;96353.25;;;5.28;100.00
22862;BME280;11598;50.652;6.172;2022-11-06T03:09:54;96361.91;;;5.27;100.00
22862;BME280;11598;50.652;6.172;2022-11-06T03:30:08;96368.97;;;5.40;100.00
22862;BME280;11598;50.652;6.172;2022-11-06T03:40:13;96386.66;;;5.46;100.00
22862;BME280;11598;50.652;6.172;2022-11-06T03:50:46;96380.84;;;5.42;100.00
22862;BME280;11598;50.652;6.172;2022-11-06T04:00:49;96368.53;;;5.47;100.00
22862;BME280;11598;50.652;6.172;2022-11-06T04:10:53;96349.16;;;5.56;100.00
22862;BME280;11598;50.652;6.172;2022-11-06T04:21:42;96334.00;;;5.66;100.00
22862;BME280;11598;50.652;6.172;2022-11-06T04:31:57;96313.13;;;5.70;100.00
22862;BME280;11598;50.652;6.172;2022-11-06T04:52:26;96263.81;;;5.77;100.00
22862;BME280;11598;50.652;6.172;2022-11-06T05:02:27;96232.94;;;5.75;100.00
22862;BME280;11598;50.652;6.172;2022-11-06T05:12:27;96232.94;;;5.75;100.00
22862;BME280;11598;50.652;6.172;2022-11-06T05:22:28;96222.72;;;5.73;100.00
22862;BME280;11598;50.652;6.172;2022-11-06T05:32:47;96212.78;;;5.67;100.00
22862;BME280;11598;50.652;6.172;2022-11-06T05:42:48;96205.06;;;5.67;100.00
22862;BME280;11598;50.652;6.172;2022-11-06T05:52:48;96204.59;;;5.61;100.00
22862;BME280;11598;50.652;6.172;2022-11-06T06:02:48;96213.66;;;5.52;100.00
22862;BME280;11598;50.652;6.172;2022-11-06T06:12:49;96215.22;;;5.40;100.00
22862;BME280;11598;50.652;6.172;2022-11-06T06:22:52;96198.44;;;5.33;100.00
22862;BME280;11598;50.652;6.172;2022-11-06T06:32:53;96208.84;;;5.32;100.00
22862;BME280;11598;50.652;6.172;2022-11-06T06:42:57;96198.63;;;5.30;100.00
22862;BME280;11598;50.652;6.172;2022-11-06T06:52:58;96194.13;;;5.34;100.00
22862;BME280;11598;50.652;6.172;2022-11-06T07:02:58;96181.16;;;5.35;100.00
22862;BME280;11598;50.652;6.172;2022-11-06T07:13:01;96183.28;;;5.43;100.00
22862;BME280;11598;50.652;6.172;2022-11-06T07:23:05;96195.00;;;5.63;100.00
22862;BME280;11598;50.652;6.172;2022-11-06T07:33:06;96186.56;;;5.89;100.00
22862;BME280;11598;50.652;6.172;2022-11-06T07:43:08;96179.97;;;6.14;100.00
22862;BME280;11598;50.652;6.172;2022-11-06T07:53:09;96192.69;;;6.44;100.00
22862;BME280;11598;50.652;6.172;2022-11-06T08:03:09;96176.50;;;6.28;100.00
22862;BME280;11598;50.652;6.172;2022-11-06T08:13:10;96166.22;;;6.13;100.00
22862;BME280;11598;50.652;6.172;2022-11-06T08:23:12;96156.00;;;6.12;100.00
22862;BME280;11598;50.652;6.172;2022-11-06T08:33:12;96134.84;;;6.07;99.67
22862;BME280;11598;50.652;6.172;2022-11-06T08:43:13;96133.97;;;6.06;99.35
22862;BME280;11598;50.652;6.172;2022-11-06T08:53:13;96116.72;;;6.35;99.05
22862;BME280;11598;50.652;6.172;2022-11-06T09:03:15;96106.38;;;6.63;98.08
22862;BME280;11598;50.652;6.172;2022-11-06T09:13:18;96088.50;;;6.99;97.20
22862;BME280;11598;50.652;6.172;2022-11-06T09:23:19;96057.06;;;7.31;95.55
22862;BME280;11598;50.652;6.172;2022-11-06T09:33:19;96061.00;;;7.62;93.31
22862;BME280;11598;50.652;6.172;2022-11-06T09:53:55;96047.06;;;8.26;89.67
22862;BME280;11598;50.652;6.172;2022-11-06T10:04:01;96035.00;;;8.14;87.91
22862;BME280;11598;50.652;6.172;2022-11-06T10:14:34;96005.41;;;8.29;88.51
22862;BME280;11598;50.652;6.172;2022-11-06T10:25:15;96004.94;;;8.48;86.97
22862;BME280;11598;50.652;6.172;2022-11-06T10:35:27;95995.53;;;8.47;85.90
22862;BME280;11598;50.652;6.172;2022-11-06T10:45:31;95988.47;;;8.49;85.17
22862;BME280;11598;50.652;6.172;2022-11-06T10:55:53;95988.34;;;8.51;85.24
22862;BME280;11598;50.652;6.172;2022-11-06T11:05:55;95971.69;;;8.31;82.45
22862;BME280;11598;50.652;6.172;2022-11-06T11:15:56;95961.44;;;8.05;81.92
22862;BME280;11598;50.652;6.172;2022-11-06T11:26:14;95935.38;;;7.84;82.13
22862;BME280;11598;50.652;6.172;2022-11-06T11:36:16;95913.06;;;7.70;82.51
22862;BME280;11598;50.652;6.172;2022-11-06T11:46:18;95902.13;;;7.91;81.72
22862;BME280;11598;50.652;6.172;2022-11-06T11:56:20;95874.91;;;8.09;80.02
22862;BME280;11598;50.652;6.172;2022-11-06T12:06:21;95859.91;;;8.25;78.71
22862;BME280;11598;50.652;6.172;2022-11-06T12:16:22;95841.47;;;8.41;78.71
22862;BME280;11598;50.652;6.172;2022-11-06T12:26:34;95822.44;;;8.54;77.79
22862;BME280;11598;50.652;6.172;2022-11-06T12:36:42;95808.66;;;8.53;76.50
22862;BME280;11598;50.652;6.172;2022-11-06T12:47:19;95810.66;;;8.50;75.70
22862;BME280;11598;50.652;6.172;2022-11-06T13:18:39;95766.38;;;8.19;74.12
22862;BME280;11598;50.652;6.172;2022-11-06T13:28:43;95743.88;;;7.97;74.55
22862;BME280;11598;50.652;6.172;2022-11-06T13:38:53;95751.16;;;7.80;74.60
22862;BME280;11598;50.652;6.172;2022-11-06T13:59:07;95765.91;;;7.56;75.60
22862;BME280;11598;50.652;6.172;2022-11-06T14:09:18;95770.53;;;7.39;76.25
22862;BME280;11598;50.652;6.172;2022-11-06T14:19:25;95782.63;;;6.91;80.28
22862;BME280;11598;50.652;6.172;2022-11-06T14:49:57;95749.00;;;5.91;88.59
22862;BME280;11598;50.652;6.172;2022-11-06T14:59:58;95719.72;;;5.80;89.27
22862;BME280;11598;50.652;6.172;2022-11-06T15:09:59;95719.59;;;5.68;90.46
22862;BME280;11598;50.652;6.172;2022-11-06T15:20:07;95709.28;;;5.56;91.76
22862;BME280;11598;50.652;6.172;2022-11-06T15:30:16;95679.28;;;5.42;92.69
22862;BME280;11598;50.652;6.172;2022-11-06T15:40:25;95633.22;;;5.37;92.27
22862;BME280;11598;50.652;6.172;2022-11-06T15:50:35;95617.38;;;5.43;91.56
22862;BME280;11598;50.652;6.172;2022-11-06T16:00:39;95634.66;;;5.54;90.76
22862;BME280;11598;50.652;6.172;2022-11-06T16:10:41;95684.56;;;5.66;89.68
22862;BME280;11598;50.652;6.172;2022-11-06T16:20:44;95679.59;;;5.76;89.24
22862;BME280;11598;50.652;6.172;2022-11-06T16:30:47;95673.81;;;5.85;88.28
22862;BME280;11598;50.652;6.172;2022-11-06T16:40:50;95650.94;;;5.80;88.89
22862;BME280;11598;50.652;6.172;2022-11-06T16:50:55;95612.19;;;5.69;90.03
22862;BME280;11598;50.652;6.172;2022-11-06T17:01:01;95602.00;;;5.55;90.79
22862;BME280;11598;50.652;6.172;2022-11-06T17:21:30;95583.44;;;5.49;91.04
22862;BME280;11598;50.652;6.172;2022-11-06T17:31:30;95587.25;;;5.57;91.09
22862;BME280;11598;50.652;6.172;2022-11-06T17:41:30;95583.13;;;5.54;91.77
22862;BME280;11598;50.652;6.172;2022-11-06T17:51:34;95577.56;;;5.47;91.80
22862;BME280;11598;50.652;6.172;2022-11-06T18:01:50;95578.41;;;5.61;91.97
22862;BME280;11598;50.652;6.172;2022-11-06T18:11:52;95598.78;;;5.77;91.81
22862;BME280;11598;50.652;6.172;2022-11-06T18:21:53;95625.47;;;5.76;92.13
22862;BME280;11598;50.652;6.172;2022-11-06T18:31:54;95602.69;;;5.82;92.48
22862;BME280;11598;50.652;6.172;2022-11-06T18:41:56;95635.06;;;5.86;93.07
22862;BME280;11598;50.652;6.172;2022-11-06T18:51:57;95627.63;;;6.07;93.89
22862;BME280;11598;50.652;6.172;2022-11-06T19:01:57;95622.41;;;6.20;94.14
22862;BME280;11598;50.652;6.172;2022-11-06T19:11:57;95642.41;;;6.29;95.53
22862;BME280;11598;50.652;6.172;2022-11-06T19:21:58;95661.25;;;6.43;96.38
22862;BME280;11598;50.652;6.172;2022-11-06T19:31:58;95652.53;;;6.56;96.71
22862;BME280;11598;50.652;6.172;2022-11-06T19:42:01;95676.97;;;6.64;96.88
22862;BME280;11598;50.652;6.172;2022-11-06T19:52:01;95672.41;;;6.67;96.87
22862;BME280;11598;50.652;6.172;2022-11-06T20:02:02;95689.09;;;6.74;97.58
22862;BME280;11598;50.652;6.172;2022-11-06T20:12:03;95714.50;;;6.81;97.52
22862;BME280;11598;50.652;6.172;2022-11-06T20:22:04;95720.06;;;6.87;97.93
22862;BME280;11598;50.652;6.172;2022-11-06T20:32:04;95738.72;;;6.91;98.55
22862;BME280;11598;50.652;6.172;2022-11-06T20:42:05;95737.25;;;6.99;99.10
22862;BME280;11598;50.652;6.172;2022-11-06T20:52:06;95749.00;;;7.04;99.24
22862;BME280;11598;50.652;6.172;2022-11-06T21:02:07;95784.13;;;7.06;99.78
22862;BME280;11598;50.652;6.172;2022-11-06T21:12:09;95787.31;;;7.10;100.00
22862;BME280;11598;50.652;6.172;2022-11-06T21:22:10;95801.44;;;7.17;100.00
22862;BME280;11598;50.652;6.172;2022-11-06T21:32:11;95811.09;;;7.26;100.00
22862;BME280;11598;50.652;6.172;2022-11-06T21:42:11;95806.56;;;7.30;100.00
22862;BME280;11598;50.652;6.172;2022-11-06T21:52:11;95806.97;;;7.24;100.00
22862;BME280;11598;50.652;6.172;2022-11-06T22:02:30;95808.03;;;7.21;100.00
22862;BME280;11598;50.652;6.172;2022-11-06T22:12:33;95807.63;;;7.14;100.00
22862;BME280;11598;50.652;6.172;2022-11-06T22:22:33;95824.00;;;7.15;100.00
22862;BME280;11598;50.652;6.172;2022-11-06T22:32:33;95842.19;;;7.37;100.00
22862;BME280;11598;50.652;6.172;2022-11-06T22:42:34;95847.09;;;7.53;100.00
22862;BME280;11598;50.652;6.172;2022-11-06T22:52:34;95856.28;;;7.57;100.00
22862;BME280;11598;50.652;6.172;2022-11-06T23:02:34;95850.25;;;7.57;100.00
22862;BME280;11598;50.652;6.172;2022-11-06T23:12:35;95843.88;;;7.50;100.00
22862;BME280;11598;50.652;6.172;2022-11-06T23:22:35;95836.53;;;7.32;100.00
22862;BME280;11598;50.652;6.172;2022-11-06T23:32:36;95856.63;;;7.16;100.00
22862;BME280;11598;50.652;6.172;2022-11-06T23:42:37;95865.97;;;7.06;100.00
22862;BME280;11598;50.652;6.172;2022-11-06T23:52:37;95864.41;;;7.03;100.00
